ホノルル の空港の天気 - METARとTAF

ホノルル国際空港 ( PHNL / HNL ) - アメリカ合衆国 ハワイ州ホノルル
飛行場実況気象(Metar)
観測時間01/19 14:53 HST (01/20 00:53 UTC)
風向・風速東北東 7m/s 瞬間風速8m/s
視程10km以上
天気現象
少しの雲 雲底高度 1010m
全天の4割程度の雲 雲底高度 1520m
気温27.2℃
湿度45%
気圧1018.5hPa
METARPHNL 200053Z 07013G16KT 10SM FEW033 SCT050 27/14 A3008 RMK AO2 SLP185 T02720144
過去の天気等 Google飛行場航空写真 Wunderground天気予報

過去48時間のMETAR

飛行場予報(TAF)
発表時間: 1/19 13:35 HST (1/19 23:35 UTC)
予報対象時間: 19日14時 HST ~ 20日20時 HST
風向・風速東北東 7m/s 瞬間風速 11m/s
視程10km以上
少しの雲 雲底高度 760m
全天の4割程度の雲 雲底高度 1,520m
19日20時 HST から
風向・風速北東 3m/s
視程10km以上
少しの雲 雲底高度 760m
全天の4割程度の雲 雲底高度 1,370m
20日11時 HST から
風向・風速北北東 6m/s
視程10km以上
少しの雲 雲底高度 760m
全天の4割程度の雲 雲底高度 1,220m
20日19時 HST から
風向・風速北北東 3m/s
視程10km以上
少しの雲 雲底高度 760m
全天の4割程度の雲 雲底高度 1,220m
PHNL 192335Z 2000/2106 07014G21KT P6SM FEW025 SCT050
FM200600 05006KT P6SM FEW025 SCT045
FM202100 03012KT P6SM FEW025 SCT040
FM210500 03006KT P6SM FEW025 SCT040